createdAt,value
2019-05-17T00:00:28.952Z,17.62
2019-05-17T00:01:28.978Z,17.62
2019-05-17T00:02:29.037Z,17.59
2019-05-17T00:03:29.087Z,17.66
2019-05-17T00:04:29.129Z,17.62
2019-05-17T00:05:29.173Z,17.57
2019-05-17T00:06:29.261Z,17.59
2019-05-17T00:07:29.248Z,17.59
2019-05-17T00:08:34.262Z,17.69
2019-05-17T00:09:29.326Z,17.71
2019-05-17T00:10:29.427Z,17.69
2019-05-17T00:11:29.447Z,17.66
2019-05-17T00:12:31.017Z,17.67
2019-05-17T00:13:30.042Z,17.71
2019-05-17T00:14:29.873Z,17.66
2019-05-17T00:15:36.671Z,17.62
2019-05-17T00:16:30.155Z,17.74
2019-05-17T00:17:37.360Z,17.82
2019-05-17T00:18:30.018Z,17.73
2019-05-17T00:19:30.086Z,17.79
2019-05-17T00:20:31.547Z,17.76
2019-05-17T00:21:31.589Z,17.73
2019-05-17T00:22:36.604Z,17.70
2019-05-17T00:23:31.192Z,17.64
2019-05-17T00:24:29.965Z,17.69
2019-05-17T00:25:30.011Z,17.64
2019-05-17T00:26:30.085Z,17.67
2019-05-17T00:27:30.109Z,17.74
2019-05-17T00:28:30.108Z,17.73
2019-05-17T00:29:30.192Z,17.81
2019-05-17T00:30:30.216Z,17.74
2019-05-17T00:31:30.240Z,17.73
2019-05-17T00:32:30.322Z,17.76
2019-05-17T00:33:30.337Z,17.78
2019-05-17T00:34:30.368Z,17.74
2019-05-17T00:35:30.434Z,17.79
2019-05-17T00:36:30.458Z,17.79
2019-05-17T00:37:30.511Z,17.71
2019-05-17T00:38:30.551Z,17.78
2019-05-17T00:39:30.591Z,17.71
2019-05-17T00:40:30.642Z,17.78
2019-05-17T00:41:30.697Z,17.79
2019-05-17T00:42:30.730Z,17.76
2019-05-17T00:43:30.761Z,17.81
2019-05-17T00:44:30.788Z,17.79
2019-05-17T00:45:30.852Z,17.78
2019-05-17T00:46:30.940Z,17.71
2019-05-17T00:47:30.937Z,17.74
2019-05-17T00:48:30.953Z,17.71
2019-05-17T00:49:31.031Z,17.73
2019-05-17T00:50:31.099Z,17.67
2019-05-17T00:51:31.084Z,17.69
2019-05-17T00:52:31.149Z,17.70
2019-05-17T00:53:31.173Z,17.70
2019-05-17T00:54:31.262Z,17.74
2019-05-17T00:55:31.299Z,17.73
2019-05-17T00:56:31.351Z,17.73
2019-05-17T00:57:31.346Z,17.73
2019-05-17T00:58:31.399Z,17.74
2019-05-17T00:59:31.438Z,17.69
2019-05-17T01:00:31.482Z,17.64
2019-05-17T01:01:31.599Z,17.67
2019-05-17T01:02:31.655Z,17.69
2019-05-17T01:03:31.795Z,17.70
2019-05-17T01:04:31.666Z,17.67
2019-05-17T01:05:31.685Z,17.67
2019-05-17T01:06:31.767Z,17.67
2019-05-17T01:07:31.760Z,17.62
2019-05-17T01:08:31.828Z,17.69
2019-05-17T01:09:32.001Z,17.62
2019-05-17T01:10:31.896Z,17.57
2019-05-17T01:11:31.989Z,17.53
2019-05-17T01:12:32.038Z,17.66
2019-05-17T01:13:32.013Z,17.62
2019-05-17T01:14:32.181Z,17.62
2019-05-17T01:15:32.167Z,17.55
2019-05-17T01:16:32.189Z,17.57
2019-05-17T01:17:32.206Z,17.66
2019-05-17T01:18:32.283Z,17.64
2019-05-17T01:19:32.432Z,17.69
2019-05-17T01:20:32.405Z,17.53
2019-05-17T01:21:32.398Z,17.59
2019-05-17T01:22:32.460Z,17.59
2019-05-17T01:23:32.505Z,17.66
2019-05-17T01:24:32.497Z,17.63
2019-05-17T01:25:32.627Z,17.64
2019-05-17T01:26:32.721Z,17.62
2019-05-17T01:27:32.614Z,17.62
2019-05-17T01:28:32.704Z,17.67
2019-05-17T01:29:32.683Z,17.71
2019-05-17T01:30:32.785Z,17.67
2019-05-17T01:31:32.944Z,17.69
2019-05-17T01:32:32.924Z,17.64
2019-05-17T01:33:32.912Z,17.67
2019-05-17T01:34:32.894Z,17.64
2019-05-17T01:35:33.005Z,17.67
2019-05-17T01:36:33.037Z,17.66
2019-05-17T01:37:33.213Z,17.67
2019-05-17T01:38:33.276Z,17.69
2019-05-17T01:39:33.599Z,17.66
2019-05-17T01:40:33.223Z,17.70
2019-05-17T01:41:33.261Z,17.64
2019-05-17T01:42:33.314Z,17.67
2019-05-17T01:43:33.434Z,17.71
2019-05-17T01:44:33.447Z,17.71
2019-05-17T01:45:33.421Z,17.69
2019-05-17T01:46:33.404Z,17.71
2019-05-17T01:47:33.505Z,17.70
2019-05-17T01:48:33.489Z,17.66
2019-05-17T01:49:33.558Z,17.76
2019-05-17T01:50:33.599Z,17.74
2019-05-17T01:51:33.634Z,17.66
2019-05-17T01:52:33.678Z,17.76
2019-05-17T01:53:33.702Z,17.76
2019-05-17T01:54:36.148Z,17.79
2019-05-17T01:55:33.785Z,17.71
2019-05-17T01:56:33.834Z,17.79
2019-05-17T01:57:33.915Z,17.81
2019-05-17T01:58:36.316Z,17.78
2019-05-17T01:59:33.969Z,17.94
2019-05-17T02:00:33.998Z,17.91
2019-05-17T02:01:34.053Z,17.85
2019-05-17T02:02:36.463Z,17.88
2019-05-17T02:03:34.137Z,17.97
2019-05-17T02:04:34.220Z,17.91
2019-05-17T02:05:36.905Z,17.89
2019-05-17T02:06:36.411Z,17.91
2019-05-17T02:07:34.295Z,17.95
2019-05-17T02:08:34.346Z,17.91
2019-05-17T02:09:38.575Z,17.95
2019-05-17T02:10:34.430Z,17.97
2019-05-17T02:11:34.470Z,17.85
2019-05-17T02:12:37.012Z,17.85
2019-05-17T02:13:34.558Z,17.84
2019-05-17T02:14:34.589Z,17.87
2019-05-17T02:15:34.640Z,17.82
2019-05-17T02:16:34.676Z,17.85
2019-05-17T02:17:37.163Z,17.81
2019-05-17T02:18:37.036Z,17.74
2019-05-17T02:19:37.015Z,17.76
2019-05-17T02:20:36.949Z,17.78
2019-05-17T02:21:36.740Z,17.79
2019-05-17T02:22:36.752Z,17.79
2019-05-17T02:23:36.981Z,17.79
2019-05-17T02:24:37.021Z,17.78
2019-05-17T02:25:36.970Z,17.82
2019-05-17T02:26:37.309Z,17.74
2019-05-17T02:27:40.858Z,17.71
2019-05-17T02:28:35.179Z,17.76
2019-05-17T02:29:35.229Z,17.81
2019-05-17T02:30:35.270Z,17.66
2019-05-17T02:31:35.295Z,17.67
2019-05-17T02:32:35.347Z,17.67
2019-05-17T02:33:35.406Z,17.66
2019-05-17T02:34:35.432Z,17.66
2019-05-17T02:35:35.483Z,17.66
2019-05-17T02:36:35.521Z,17.54
2019-05-17T02:37:35.572Z,17.55
2019-05-17T02:38:35.593Z,17.62
2019-05-17T02:39:52.565Z,17.62
2019-05-17T02:40:35.689Z,17.67
2019-05-17T02:41:35.730Z,17.54
2019-05-17T02:42:35.748Z,17.59
2019-05-17T02:43:35.847Z,17.62
2019-05-17T02:44:35.852Z,17.63
2019-05-17T02:45:35.915Z,17.54
2019-05-17T02:46:35.942Z,17.57
2019-05-17T02:47:35.981Z,17.59
2019-05-17T02:48:36.047Z,17.53
2019-05-17T02:49:36.065Z,17.53
2019-05-17T02:50:36.092Z,17.48
2019-05-17T02:51:36.152Z,17.47
2019-05-17T02:52:36.206Z,17.48
2019-05-17T02:53:36.229Z,17.41
2019-05-17T02:54:36.249Z,17.40
2019-05-17T02:55:36.330Z,17.47
2019-05-17T02:56:36.353Z,17.38
2019-05-17T02:57:36.391Z,17.46
2019-05-17T02:58:36.441Z,17.50
2019-05-17T02:59:36.464Z,17.53
2019-05-17T03:00:36.543Z,17.53
2019-05-17T03:01:36.569Z,17.51
2019-05-17T03:02:36.622Z,17.47
2019-05-17T03:03:36.645Z,17.53
2019-05-17T03:04:36.706Z,17.51
2019-05-17T03:05:36.744Z,17.51
2019-05-17T03:06:36.773Z,17.44
2019-05-17T03:07:36.824Z,17.47
2019-05-17T03:08:36.853Z,17.41
2019-05-17T03:09:36.890Z,17.41
2019-05-17T03:10:36.932Z,17.48
2019-05-17T03:11:36.976Z,17.47
2019-05-17T03:12:37.047Z,17.47
2019-05-17T03:13:37.100Z,17.44
2019-05-17T03:14:37.131Z,17.43
2019-05-17T03:15:37.174Z,17.47
2019-05-17T03:16:37.209Z,17.44
2019-05-17T03:17:37.240Z,17.44
2019-05-17T03:18:37.290Z,17.44
2019-05-17T03:19:37.332Z,17.47
2019-05-17T03:20:37.364Z,17.51
2019-05-17T03:21:37.415Z,17.44
2019-05-17T03:22:37.452Z,17.51
2019-05-17T03:23:37.545Z,17.46
2019-05-17T03:24:37.550Z,17.54
2019-05-17T03:25:37.572Z,17.50
2019-05-17T03:26:37.617Z,17.51
2019-05-17T03:27:37.653Z,17.53
2019-05-17T03:28:37.695Z,17.46
2019-05-17T03:29:37.769Z,17.43
2019-05-17T03:30:37.814Z,17.47
2019-05-17T03:31:44.580Z,17.43
2019-05-17T03:32:37.876Z,17.41
2019-05-17T03:33:37.910Z,17.41
2019-05-17T03:34:37.988Z,17.48
2019-05-17T03:35:38.777Z,17.47
2019-05-17T03:36:38.034Z,17.41
2019-05-17T03:37:38.315Z,17.53
2019-05-17T03:38:38.118Z,17.44
2019-05-17T03:39:38.164Z,17.47
2019-05-17T03:41:03.595Z,17.50
2019-05-17T03:41:38.253Z,17.48
2019-05-17T03:42:38.297Z,17.47
2019-05-17T03:43:41.277Z,17.46
2019-05-17T03:44:38.386Z,17.48
2019-05-17T03:45:38.410Z,17.50
2019-05-17T03:46:38.496Z,17.54
2019-05-17T03:47:38.538Z,17.55
2019-05-17T03:48:38.556Z,17.63
2019-05-17T03:49:39.518Z,17.67
2019-05-17T03:50:38.645Z,17.69
2019-05-17T03:51:38.689Z,17.66
2019-05-17T03:52:38.737Z,17.69
2019-05-17T03:53:38.801Z,17.70
2019-05-17T03:54:38.825Z,17.63
2019-05-17T03:55:38.845Z,17.67
2019-05-17T03:56:38.903Z,17.69
2019-05-17T03:57:38.921Z,17.69
2019-05-17T03:58:38.981Z,17.69
2019-05-17T03:59:39.001Z,17.69
2019-05-17T04:00:42.568Z,17.59
2019-05-17T04:01:39.147Z,17.64
2019-05-17T04:02:39.176Z,17.67
2019-05-17T04:03:39.222Z,17.70
2019-05-17T04:04:42.689Z,17.55
2019-05-17T04:05:42.671Z,17.67
2019-05-17T04:06:39.312Z,17.66
2019-05-17T04:07:39.354Z,17.64
2019-05-17T04:08:42.256Z,17.71
2019-05-17T04:09:39.442Z,17.64
2019-05-17T04:10:42.397Z,17.69
2019-05-17T04:11:42.705Z,17.67
2019-05-17T04:12:39.599Z,17.69
2019-05-17T04:13:42.802Z,17.71
2019-05-17T04:14:42.646Z,17.64
2019-05-17T04:15:43.132Z,17.67
2019-05-17T04:16:42.618Z,17.66
2019-05-17T04:17:43.126Z,17.70
2019-05-17T04:18:43.362Z,17.70
2019-05-17T04:19:42.614Z,17.62
2019-05-17T04:20:43.047Z,17.73
2019-05-17T04:21:42.723Z,17.67
2019-05-17T04:22:43.686Z,17.70
2019-05-17T04:23:42.820Z,17.67
2019-05-17T04:24:43.591Z,17.73
2019-05-17T04:25:43.309Z,17.66
2019-05-17T04:26:43.458Z,17.64
2019-05-17T04:27:43.610Z,17.67
2019-05-17T04:28:43.806Z,17.66
2019-05-17T04:29:42.520Z,17.66
2019-05-17T04:30:43.167Z,17.67
2019-05-17T04:31:43.460Z,17.67
2019-05-17T04:32:43.611Z,17.70
2019-05-17T04:33:42.786Z,17.64
2019-05-17T04:34:43.407Z,17.69
2019-05-17T04:35:43.180Z,17.63
2019-05-17T04:36:42.960Z,17.70
2019-05-17T04:37:43.874Z,17.63
2019-05-17T04:38:43.467Z,17.66
2019-05-17T04:39:43.175Z,17.67
2019-05-17T04:40:43.186Z,17.63
2019-05-17T04:41:46.915Z,17.62
2019-05-17T04:42:43.902Z,17.67
2019-05-17T04:43:42.441Z,17.62
2019-05-17T04:44:43.120Z,17.59
2019-05-17T04:45:42.564Z,17.59
2019-05-17T04:46:43.103Z,17.59
2019-05-17T04:47:44.427Z,17.63
2019-05-17T04:48:43.935Z,17.66
2019-05-17T04:49:43.935Z,17.62
2019-05-17T04:50:42.851Z,17.63
2019-05-17T04:51:43.953Z,17.63
2019-05-17T04:52:42.855Z,17.62
2019-05-17T04:53:43.097Z,17.57
2019-05-17T04:54:42.424Z,17.63
2019-05-17T04:55:43.114Z,17.66
2019-05-17T04:56:42.627Z,17.59
2019-05-17T04:57:43.761Z,17.66
2019-05-17T04:58:42.849Z,17.57
2019-05-17T04:59:43.395Z,17.66
2019-05-17T05:00:42.999Z,17.67
2019-05-17T05:01:43.487Z,17.67
2019-05-17T05:02:43.599Z,17.69
2019-05-17T05:03:43.060Z,17.71
2019-05-17T05:04:43.545Z,17.69
2019-05-17T05:05:42.835Z,17.66
2019-05-17T05:06:43.520Z,17.67
2019-05-17T05:07:43.210Z,17.71
2019-05-17T05:08:42.604Z,17.69
2019-05-17T05:09:42.918Z,17.71
2019-05-17T05:10:42.669Z,17.67
2019-05-17T05:11:56.143Z,17.67
2019-05-17T05:12:43.446Z,17.70
2019-05-17T05:13:42.719Z,17.70
2019-05-17T05:14:43.125Z,17.73
2019-05-17T05:15:43.852Z,17.74
2019-05-17T05:16:42.518Z,17.67
2019-05-17T05:17:42.923Z,17.71
2019-05-17T05:18:42.353Z,17.70
2019-05-17T05:19:42.458Z,17.67
2019-05-17T05:20:43.557Z,17.66
2019-05-17T05:21:42.774Z,17.69
2019-05-17T05:22:43.142Z,17.71
2019-05-17T05:23:42.604Z,17.67
2019-05-17T05:24:42.611Z,17.66
2019-05-17T05:25:43.263Z,17.67
2019-05-17T05:26:42.691Z,17.69
2019-05-17T05:27:43.054Z,17.74
2019-05-17T05:28:42.788Z,17.73
2019-05-17T05:29:42.836Z,17.82
2019-05-17T05:30:42.876Z,17.79
2019-05-17T05:31:42.934Z,17.79
2019-05-17T05:32:43.014Z,17.84
2019-05-17T05:33:43.008Z,17.81
2019-05-17T05:34:46.212Z,17.79
2019-05-17T05:35:43.103Z,17.79
2019-05-17T05:36:43.129Z,17.85
2019-05-17T05:37:43.180Z,17.85
2019-05-17T05:38:43.209Z,17.97
2019-05-17T05:39:43.283Z,17.81
2019-05-17T05:40:43.308Z,17.81
2019-05-17T05:41:43.313Z,17.88
2019-05-17T05:42:43.363Z,17.94
2019-05-17T05:43:43.425Z,17.97
2019-05-17T05:44:43.475Z,17.91
2019-05-17T05:45:43.515Z,17.91
2019-05-17T05:46:43.601Z,17.88
2019-05-17T05:47:43.610Z,17.94
2019-05-17T05:48:43.647Z,17.92
2019-05-17T05:49:43.686Z,17.94
2019-05-17T05:50:43.733Z,17.97
2019-05-17T05:51:43.760Z,17.89
2019-05-17T05:52:43.786Z,17.97
2019-05-17T05:53:43.864Z,17.97
2019-05-17T05:54:43.943Z,17.89
2019-05-17T05:55:43.918Z,17.81
2019-05-17T05:56:44.020Z,17.81
2019-05-17T05:57:44.039Z,17.76
2019-05-17T05:58:44.076Z,17.74
2019-05-17T05:59:44.093Z,17.82
2019-05-17T06:00:44.146Z,17.84
2019-05-17T06:01:44.216Z,17.78
2019-05-17T06:02:44.233Z,17.79
2019-05-17T06:03:44.250Z,17.78
2019-05-17T06:04:44.329Z,17.84
2019-05-17T06:05:44.354Z,17.89
2019-05-17T06:06:44.401Z,17.84
2019-05-17T06:07:44.485Z,17.84
2019-05-17T06:08:44.485Z,17.85
2019-05-17T06:09:44.523Z,17.85
2019-05-17T06:10:44.561Z,17.88
2019-05-17T06:11:44.608Z,17.82
2019-05-17T06:12:44.640Z,17.78
2019-05-17T06:13:44.688Z,17.76
2019-05-17T06:14:44.737Z,17.74
2019-05-17T06:15:44.784Z,17.78
2019-05-17T06:16:47.605Z,17.76
2019-05-17T06:17:44.891Z,17.74
2019-05-17T06:18:44.907Z,17.79
2019-05-17T06:19:44.966Z,17.78
2019-05-17T06:20:45.004Z,17.84
2019-05-17T06:21:45.022Z,17.87
2019-05-17T06:22:45.083Z,17.82
2019-05-17T06:23:45.096Z,17.89
2019-05-17T06:24:45.176Z,17.88
2019-05-17T06:25:45.207Z,17.92
2019-05-17T06:26:45.267Z,17.91
2019-05-17T06:27:45.319Z,17.82
2019-05-17T06:28:45.296Z,17.81
2019-05-17T06:29:45.361Z,17.81
2019-05-17T06:30:45.406Z,17.81
2019-05-17T06:31:45.467Z,17.85
2019-05-17T06:32:45.503Z,17.82
2019-05-17T06:33:45.543Z,17.85
2019-05-17T06:34:45.606Z,17.85
2019-05-17T06:35:45.662Z,17.85
2019-05-17T06:36:45.659Z,17.84
2019-05-17T06:37:45.715Z,17.87
2019-05-17T06:38:45.788Z,17.82
2019-05-17T06:39:45.769Z,17.78
2019-05-17T06:40:45.872Z,17.91
2019-05-17T06:41:45.889Z,17.79
2019-05-17T06:42:45.905Z,17.85
2019-05-17T06:43:45.962Z,17.84
2019-05-17T06:44:46.008Z,17.89
2019-05-17T06:45:46.051Z,17.89
2019-05-17T06:46:46.105Z,17.85
2019-05-17T06:47:46.112Z,17.97
2019-05-17T06:48:46.172Z,17.94
2019-05-17T06:49:46.256Z,17.88
2019-05-17T06:50:46.303Z,17.97
2019-05-17T06:51:46.286Z,17.95
2019-05-17T06:52:46.356Z,17.88
2019-05-17T06:53:46.421Z,17.94
2019-05-17T06:54:46.433Z,17.79
2019-05-17T06:55:46.460Z,17.94
2019-05-17T06:56:46.508Z,17.97
2019-05-17T06:57:46.537Z,17.88
2019-05-17T06:58:46.576Z,17.92
2019-05-17T06:59:46.654Z,17.92
2019-05-17T07:00:46.687Z,17.92
2019-05-17T07:01:46.735Z,17.91
2019-05-17T07:02:46.759Z,17.99
2019-05-17T07:03:46.826Z,18.00
2019-05-17T07:04:46.914Z,17.89
2019-05-17T07:05:46.895Z,17.97
2019-05-17T07:06:49.423Z,18.03
2019-05-17T07:07:49.566Z,18.02
2019-05-17T07:08:47.009Z,17.97
2019-05-17T07:09:49.552Z,17.94
2019-05-17T07:10:47.159Z,17.99
2019-05-17T07:11:47.157Z,17.92
2019-05-17T07:12:57.811Z,17.92
2019-05-17T07:13:49.498Z,17.91
2019-05-17T07:14:47.282Z,17.91
2019-05-17T07:15:48.635Z,17.92
2019-05-17T07:16:47.422Z,17.94
2019-05-17T07:17:47.394Z,17.97
2019-05-17T07:18:49.411Z,17.95
2019-05-17T07:19:47.521Z,17.92
2019-05-17T07:20:49.988Z,17.95
2019-05-17T07:21:49.459Z,17.97
2019-05-17T07:22:47.626Z,17.95
2019-05-17T07:23:49.799Z,17.97
2019-05-17T07:24:50.109Z,18.00
2019-05-17T07:25:50.156Z,18.02
2019-05-17T07:26:49.824Z,18.00
2019-05-17T07:27:50.099Z,18.02
2019-05-17T07:28:49.800Z,17.99
2019-05-17T07:29:49.741Z,17.91
2019-05-17T07:30:50.191Z,17.97
2019-05-17T07:31:49.788Z,17.94
2019-05-17T07:32:49.808Z,17.94
2019-05-17T07:33:50.341Z,18.02
2019-05-17T07:34:50.176Z,18.04
2019-05-17T07:35:50.178Z,17.99
2019-05-17T07:36:50.234Z,17.95
2019-05-17T07:37:50.091Z,18.06
2019-05-17T07:38:50.533Z,18.04
2019-05-17T07:39:58.600Z,18.06
2019-05-17T07:40:50.174Z,18.04
2019-05-17T07:41:49.386Z,18.09
2019-05-17T07:42:50.114Z,18.04
2019-05-17T07:43:49.741Z,18.04
2019-05-17T07:44:49.670Z,18.04
2019-05-17T07:45:49.639Z,18.06
2019-05-17T07:46:51.831Z,18.13
2019-05-17T07:47:49.513Z,18.09
2019-05-17T07:48:49.753Z,18.09
2019-05-17T07:49:49.443Z,18.09
2019-05-17T07:50:50.460Z,18.15
2019-05-17T07:51:50.292Z,18.13
2019-05-17T07:52:50.020Z,18.13
2019-05-17T07:53:49.527Z,18.10
2019-05-17T07:54:50.857Z,18.03
2019-05-17T07:55:50.530Z,18.12
2019-05-17T07:56:50.559Z,18.04
2019-05-17T07:57:49.582Z,18.15
2019-05-17T07:58:49.584Z,17.97
2019-05-17T07:59:50.762Z,18.02
2019-05-17T08:00:51.087Z,18.12
2019-05-17T08:01:50.298Z,18.15
2019-05-17T08:02:50.523Z,18.07
2019-05-17T08:03:50.128Z,18.07
2019-05-17T08:04:50.099Z,18.06
2019-05-17T08:05:50.558Z,18.09
2019-05-17T08:06:50.495Z,18.12
2019-05-17T08:07:50.081Z,18.07
2019-05-17T08:08:50.306Z,18.18
2019-05-17T08:09:50.691Z,18.04
2019-05-17T08:10:51.053Z,18.06
2019-05-17T08:11:50.260Z,18.12
2019-05-17T08:12:49.935Z,18.07
2019-05-17T08:13:50.463Z,18.07
2019-05-17T08:14:50.372Z,18.13
2019-05-17T08:15:50.241Z,18.02
2019-05-17T08:16:50.244Z,18.04
2019-05-17T08:17:50.314Z,18.02
2019-05-17T08:18:50.001Z,18.09
2019-05-17T08:19:50.058Z,18.03
2019-05-17T08:20:50.350Z,18.12
2019-05-17T08:21:50.288Z,18.09
2019-05-17T08:22:50.346Z,18.09
2019-05-17T08:23:50.726Z,18.06
2019-05-17T08:24:50.238Z,18.06
2019-05-17T08:25:55.640Z,18.06
2019-05-17T08:26:50.326Z,18.12
2019-05-17T08:27:50.501Z,18.09
2019-05-17T08:28:50.429Z,18.03
2019-05-17T08:29:50.463Z,18.07
2019-05-17T08:30:50.499Z,17.99
2019-05-17T08:31:50.539Z,18.15
2019-05-17T08:32:50.716Z,18.04
2019-05-17T08:33:50.626Z,18.13
2019-05-17T08:34:51.891Z,18.10
2019-05-17T08:35:50.722Z,18.07
2019-05-17T08:36:50.741Z,18.13
2019-05-17T08:37:50.838Z,18.04
2019-05-17T08:38:50.829Z,18.04
2019-05-17T08:39:50.928Z,18.12
2019-05-17T08:40:51.190Z,18.09
2019-05-17T08:41:50.960Z,18.17
2019-05-17T08:42:50.998Z,18.09
2019-05-17T08:43:51.546Z,18.12
2019-05-17T08:44:51.071Z,18.09
2019-05-17T08:45:51.135Z,18.02
2019-05-17T08:46:51.214Z,18.13
2019-05-17T08:47:51.209Z,18.13
2019-05-17T08:48:51.256Z,18.10
2019-05-17T08:49:51.312Z,18.07
2019-05-17T08:50:51.352Z,18.12
2019-05-17T08:51:51.398Z,18.07
2019-05-17T08:52:51.455Z,18.15
2019-05-17T08:53:51.476Z,18.15
2019-05-17T08:54:51.585Z,18.04
2019-05-17T08:55:51.546Z,18.18
2019-05-17T08:56:51.590Z,18.15
2019-05-17T08:57:51.647Z,18.00
2019-05-17T08:58:51.674Z,18.15
2019-05-17T08:59:51.724Z,18.19
2019-05-17T09:00:51.775Z,18.18
2019-05-17T09:01:51.796Z,18.13
2019-05-17T09:02:51.862Z,18.19
2019-05-17T09:03:51.894Z,18.06
2019-05-17T09:04:51.973Z,18.03
2019-05-17T09:05:52.888Z,18.04
2019-05-17T09:06:52.017Z,18.22
2019-05-17T09:07:52.064Z,18.07
2019-05-17T09:08:52.125Z,18.07
2019-05-17T09:09:52.160Z,18.15
2019-05-17T09:10:52.207Z,18.10
2019-05-17T09:11:52.234Z,18.17
2019-05-17T09:12:52.319Z,18.13
2019-05-17T09:13:57.952Z,18.15
2019-05-17T09:14:52.356Z,18.18
2019-05-17T09:15:52.393Z,18.17
2019-05-17T09:16:52.459Z,18.19
2019-05-17T09:17:52.480Z,18.13
2019-05-17T09:18:52.515Z,18.07
2019-05-17T09:19:54.361Z,18.15
2019-05-17T09:20:52.609Z,18.13
2019-05-17T09:21:52.664Z,18.15
2019-05-17T09:22:52.710Z,18.15
2019-05-17T09:23:52.743Z,18.10
2019-05-17T09:24:52.764Z,18.13
2019-05-17T09:25:52.823Z,18.13
2019-05-17T09:26:52.875Z,18.19
2019-05-17T09:27:52.906Z,18.18
2019-05-17T09:28:52.954Z,18.15
2019-05-17T09:29:52.987Z,18.13
2019-05-17T09:30:53.050Z,18.15
2019-05-17T09:31:53.126Z,18.15
2019-05-17T09:32:53.165Z,18.13
2019-05-17T09:33:53.157Z,18.25
2019-05-17T09:34:53.203Z,18.15
2019-05-17T09:35:53.274Z,18.25
2019-05-17T09:36:53.302Z,18.19
2019-05-17T09:37:53.314Z,18.24
2019-05-17T09:38:53.421Z,18.27
2019-05-17T09:39:53.435Z,18.24
2019-05-17T09:40:53.478Z,18.27
2019-05-17T09:41:53.498Z,18.28
2019-05-17T09:42:53.557Z,18.25
2019-05-17T09:43:53.598Z,18.21
2019-05-17T09:44:53.643Z,18.27
2019-05-17T09:45:53.677Z,18.21
2019-05-17T09:46:53.729Z,18.22
2019-05-17T09:47:53.743Z,18.34
2019-05-17T09:48:53.825Z,18.27
2019-05-17T09:49:53.832Z,18.27
2019-05-17T09:50:53.942Z,18.21
2019-05-17T09:51:53.914Z,18.31
2019-05-17T09:52:53.956Z,18.19
2019-05-17T09:53:54.027Z,18.37
2019-05-17T09:54:54.036Z,18.29
2019-05-17T09:55:54.090Z,18.33
2019-05-17T09:56:54.144Z,18.34
2019-05-17T09:57:54.176Z,18.37
2019-05-17T09:58:54.222Z,18.39
2019-05-17T09:59:55.965Z,18.27
2019-05-17T10:00:54.323Z,18.28
2019-05-17T10:01:54.359Z,18.37
2019-05-17T10:02:54.385Z,18.43
2019-05-17T10:03:54.447Z,18.33
2019-05-17T10:04:54.479Z,18.42
2019-05-17T10:05:54.547Z,18.37
2019-05-17T10:06:54.614Z,18.33
2019-05-17T10:07:54.606Z,18.25
2019-05-17T10:08:54.647Z,18.21
2019-05-17T10:09:54.718Z,18.22
2019-05-17T10:11:05.066Z,18.15
2019-05-17T10:11:54.785Z,18.10
2019-05-17T10:12:54.815Z,18.07
2019-05-17T10:13:54.850Z,18.17
2019-05-17T10:14:54.920Z,18.10
2019-05-17T10:15:54.951Z,18.09
2019-05-17T10:16:55.044Z,18.07
2019-05-17T10:17:55.006Z,18.09
2019-05-17T10:18:55.093Z,18.03
2019-05-17T10:19:55.132Z,18.04
2019-05-17T10:20:55.152Z,18.12
2019-05-17T10:21:55.182Z,18.09
2019-05-17T10:22:55.245Z,18.06
2019-05-17T10:23:55.309Z,18.07
2019-05-17T10:24:55.323Z,18.15
2019-05-17T10:25:55.383Z,18.12
2019-05-17T10:26:55.411Z,18.06
2019-05-17T10:27:55.451Z,18.03
2019-05-17T10:28:55.498Z,18.15
2019-05-17T10:29:55.535Z,18.15
2019-05-17T10:30:55.579Z,18.09
2019-05-17T10:31:55.617Z,18.04
2019-05-17T10:32:55.651Z,17.95
2019-05-17T10:33:58.191Z,18.00
2019-05-17T10:34:55.783Z,17.97
2019-05-17T10:35:55.804Z,17.95
2019-05-17T10:36:55.837Z,17.97
2019-05-17T10:37:55.884Z,17.94
2019-05-17T10:38:55.903Z,17.88
2019-05-17T10:39:55.961Z,17.91
2019-05-17T10:40:55.984Z,17.91
2019-05-17T10:41:56.021Z,17.87
2019-05-17T10:42:56.082Z,17.79
2019-05-17T10:43:56.098Z,17.78
2019-05-17T10:44:56.149Z,17.67
2019-05-17T10:45:56.220Z,17.71
2019-05-17T10:46:56.255Z,17.73
2019-05-17T10:47:56.289Z,17.69
2019-05-17T10:48:56.331Z,17.73
2019-05-17T10:49:56.371Z,17.84
2019-05-17T10:50:56.421Z,17.78
2019-05-17T10:51:56.466Z,17.79
2019-05-17T10:52:56.493Z,17.78
2019-05-17T10:53:56.538Z,17.79
2019-05-17T10:54:56.611Z,17.84
2019-05-17T10:55:56.649Z,17.85
2019-05-17T10:56:56.686Z,17.71
2019-05-17T10:57:56.719Z,17.79
2019-05-17T10:58:56.767Z,17.85
2019-05-17T10:59:59.151Z,17.81
2019-05-17T11:00:56.833Z,17.81
2019-05-17T11:01:59.480Z,17.74
2019-05-17T11:02:56.936Z,17.74
2019-05-17T11:03:59.475Z,17.64
2019-05-17T11:04:57.026Z,17.76
2019-05-17T11:05:59.532Z,17.82
2019-05-17T11:06:59.467Z,17.84
2019-05-17T11:07:59.759Z,17.82
2019-05-17T11:08:59.382Z,17.85
2019-05-17T11:09:59.901Z,17.84
2019-05-17T11:10:59.426Z,17.82
2019-05-17T11:11:57.330Z,17.82
2019-05-17T11:12:57.339Z,17.76
2019-05-17T11:13:57.392Z,17.84
2019-05-17T11:15:10.250Z,17.79
2019-05-17T11:15:57.500Z,17.78
2019-05-17T11:16:57.536Z,17.73
2019-05-17T11:17:57.572Z,17.78
2019-05-17T11:18:57.593Z,17.85
2019-05-17T11:19:57.660Z,17.82
2019-05-17T11:20:57.687Z,17.84
2019-05-17T11:21:57.729Z,17.87
2019-05-17T11:22:57.803Z,17.94
2019-05-17T11:23:57.820Z,17.87
2019-05-17T11:24:57.860Z,17.81
2019-05-17T11:25:57.917Z,17.71
2019-05-17T11:26:57.957Z,17.70
2019-05-17T11:27:58.013Z,17.70
2019-05-17T11:28:58.043Z,17.84
2019-05-17T11:29:58.094Z,17.81
2019-05-17T11:30:58.130Z,17.85
2019-05-17T11:31:58.170Z,17.81
2019-05-17T11:32:58.208Z,17.84
2019-05-17T11:33:58.257Z,17.84
2019-05-17T11:34:58.293Z,17.76
2019-05-17T11:35:58.322Z,17.70
2019-05-17T11:36:58.411Z,17.71
2019-05-17T11:37:58.421Z,17.78
2019-05-17T11:38:58.446Z,17.79
2019-05-17T11:39:58.517Z,17.79
2019-05-17T11:40:58.533Z,17.81
2019-05-17T11:41:58.623Z,17.89
2019-05-17T11:42:58.601Z,17.89
2019-05-17T11:43:58.666Z,17.91
2019-05-17T11:44:58.739Z,17.85
2019-05-17T11:45:58.768Z,17.76
2019-05-17T11:46:58.787Z,17.74
2019-05-17T11:47:58.823Z,17.76
2019-05-17T11:48:58.882Z,17.79
2019-05-17T11:49:58.939Z,17.82
2019-05-17T11:50:58.974Z,17.84
2019-05-17T11:51:59.017Z,17.81
2019-05-17T11:52:59.029Z,17.88
2019-05-17T11:53:59.140Z,17.94
2019-05-17T11:54:59.141Z,17.91
2019-05-17T11:55:59.164Z,17.81
2019-05-17T11:56:59.232Z,17.82
2019-05-17T11:57:59.237Z,17.81
2019-05-17T11:58:59.283Z,17.91
2019-05-17T11:59:59.335Z,17.87
2019-05-17T12:00:59.369Z,17.94
2019-05-17T12:01:59.414Z,17.99
2019-05-17T12:02:59.517Z,18.00
2019-05-17T12:03:59.535Z,18.04
2019-05-17T12:04:59.574Z,18.04
2019-05-17T12:05:59.585Z,18.02
2019-05-17T12:06:59.690Z,18.12
2019-05-17T12:07:59.675Z,18.17
2019-05-17T12:08:59.771Z,18.15
2019-05-17T12:09:59.834Z,18.07
2019-05-17T12:10:59.848Z,18.18
2019-05-17T12:11:59.862Z,18.13
2019-05-17T12:12:59.983Z,18.27
2019-05-17T12:13:59.942Z,18.24
2019-05-17T12:14:59.962Z,18.18
2019-05-17T12:16:00.040Z,18.07
2019-05-17T12:17:00.074Z,18.22
2019-05-17T12:18:00.115Z,18.18
2019-05-17T12:19:00.153Z,18.21
2019-05-17T12:20:00.211Z,18.24
2019-05-17T12:21:00.237Z,18.15
2019-05-17T12:22:00.350Z,17.99
2019-05-17T12:23:00.327Z,18.22
2019-05-17T12:24:00.376Z,18.17
2019-05-17T12:25:00.405Z,18.25
2019-05-17T12:26:00.447Z,18.25
2019-05-17T12:27:00.498Z,18.22
2019-05-17T12:28:00.528Z,18.18
2019-05-17T12:29:00.582Z,18.25
2019-05-17T12:30:00.652Z,18.25
2019-05-17T12:31:00.683Z,18.31
2019-05-17T12:32:00.688Z,18.34
2019-05-17T12:33:00.749Z,18.25
2019-05-17T12:34:00.839Z,18.22
2019-05-17T12:35:00.845Z,18.25
2019-05-17T12:36:00.863Z,18.19
2019-05-17T12:37:00.928Z,18.19
2019-05-17T12:38:01.015Z,18.29
2019-05-17T12:39:01.016Z,18.34
2019-05-17T12:40:01.033Z,18.25
2019-05-17T12:41:01.133Z,18.29
2019-05-17T12:42:01.233Z,18.24
2019-05-17T12:43:01.192Z,18.31
2019-05-17T12:44:01.255Z,18.29
2019-05-17T12:45:01.333Z,18.31
2019-05-17T12:46:01.866Z,18.31
2019-05-17T12:47:01.353Z,18.31
2019-05-17T12:48:01.389Z,18.29
2019-05-17T12:49:02.155Z,18.21
2019-05-17T12:50:01.529Z,18.42
2019-05-17T12:51:01.515Z,18.55
2019-05-17T12:52:01.560Z,18.67
2019-05-17T12:53:01.629Z,18.73